Time;durP1;ratioP1;P1;durP2;ratioP2;P2;SDS_P1;SDS_P2;PMS_P1;PMS_P2;Temp;Humidity;BMP_temperature;BMP_pressure;BME280_temperature;BME280_humidity;BME280_pressure;Samples;Min_cycle;Max_cycle;Signal;HPM_P1;HPM_P2
2023/10/29 00:22:28;;;;;;;;;;;;;;;13.72;62.36;98422.88;1088119;54;1215;-83
2023/10/29 00:23:44;;;;;;;;;;;;;;;13.74;62.33;98422.66;1088634;47;937;-79
2023/10/29 00:24:47;;;;;;;;;;;;;;;13.73;62.01;98423.69;1088705;54;936;-82
2023/10/29 00:26:25;;;;;;;;;;;;;;;13.70;62.46;98424.09;1089016;54;1086;-84
2023/10/29 00:28:13;;;;;;;;;;;;;;;13.67;62.18;98421.84;1089161;46;1205;-84
2023/10/29 00:29:14;;;;;;;;;;;;;;;13.66;62.47;98426.38;1088711;54;1042;-82
2023/10/29 00:30:17;;;;;;;;;;;;;;;13.58;62.82;98426.56;1088658;47;1003;-80
2023/10/29 00:31:18;;;;;;;;;;;;;;;13.62;62.64;98430.50;1088727;54;955;-82
2023/10/29 00:32:21;;;;;;;;;;;;;;;13.64;62.86;98430.28;1088637;47;1848;-81
2023/10/29 00:33:22;;;;;;;;;;;;;;;13.59;62.89;98416.66;1088709;47;1044;-81
2023/10/29 00:34:25;;;;;;;;;;;;;;;13.56;62.93;98413.34;1088724;54;1042;-82
2023/10/29 00:35:26;;;;;;;;;;;;;;;13.60;62.62;98418.34;1088631;54;1050;-81
2023/10/29 01:03:49;;;;;;;;;;;;;;;13.34;63.62;98428.78;1088192;54;1172;-82
2023/10/29 01:04:49;;;;;;;;;;;;;;;13.35;64.16;98430.44;1089085;54;897;-83
2023/10/29 01:05:56;;;;;;;;;;;;;;;13.39;63.44;98422.81;1088798;47;918;-82
2023/10/29 01:10:25;;;;;;;;;;;;;;;13.36;63.46;98428.56;1088380;54;1186;-83
2023/10/29 01:11:27;;;;;;;;;;;;;;;13.40;63.34;98419.13;1088690;47;1357;-84
2023/10/29 01:12:30;;;;;;;;;;;;;;;13.39;63.10;98426.31;1088635;54;1849;-82
2023/10/29 01:13:35;;;;;;;;;;;;;;;13.43;62.95;98425.94;1088645;47;984;-81
2023/10/29 01:14:36;;;;;;;;;;;;;;;13.47;62.95;98424.47;1088682;54;1004;-81
2023/10/29 01:15:41;;;;;;;;;;;;;;;13.47;63.09;98419.94;1088775;47;955;-82
2023/10/29 01:16:41;;;;;;;;;;;;;;;13.49;63.02;98423.25;1088357;47;1153;-79
2023/10/29 01:17:48;;;;;;;;;;;;;;;13.49;62.66;98411.69;1088397;54;990;-80
2023/10/29 01:19:01;;;;;;;;;;;;;;;13.51;62.67;98410.44;1088370;47;957;-82
2023/10/29 01:20:05;;;;;;;;;;;;;;;13.51;62.60;98406.94;1088325;47;1073;-78
2023/10/29 01:21:08;;;;;;;;;;;;;;;13.48;62.74;98405.50;1088345;47;970;-79
2023/10/29 01:22:25;;;;;;;;;;;;;;;13.52;62.27;98401.38;1088429;54;885;-81
2023/10/29 01:23:28;;;;;;;;;;;;;;;13.51;62.54;98398.88;1088545;47;980;-80
2023/10/29 01:24:34;;;;;;;;;;;;;;;13.54;62.27;98396.63;1088257;47;919;-79
2023/10/29 01:25:38;;;;;;;;;;;;;;;13.52;62.17;98390.63;1088625;54;969;-82
2023/10/29 01:26:44;;;;;;;;;;;;;;;13.54;62.05;98391.25;1088613;47;1244;-83
2023/10/29 01:27:52;;;;;;;;;;;;;;;13.54;62.09;98393.94;1088601;54;1052;-84
2023/10/29 01:28:55;;;;;;;;;;;;;;;13.56;61.98;98393.72;1088276;54;1111;-80
2023/10/29 01:30:17;;;;;;;;;;;;;;;13.60;61.76;98394.16;1088503;47;1041;-83
2023/10/29 01:31:23;;;;;;;;;;;;;;;13.59;61.56;98387.13;1088702;54;966;-83
2023/10/29 01:32:26;;;;;;;;;;;;;;;13.60;61.57;98394.16;1088648;54;1846;-81
2023/10/29 01:33:30;;;;;;;;;;;;;;;13.62;61.30;98389.41;1088523;54;1031;-83
2023/10/29 01:34:46;;;;;;;;;;;;;;;13.61;61.80;98387.75;1088776;54;1000;-85
2023/10/29 01:35:52;;;;;;;;;;;;;;;13.60;61.58;98386.13;1088760;47;933;-83
2023/10/29 01:36:57;;;;;;;;;;;;;;;13.58;61.69;98386.28;1088742;47;1377;-83
2023/10/29 01:38:01;;;;;;;;;;;;;;;13.61;61.12;98393.09;1088409;47;968;-78
2023/10/29 01:39:05;;;;;;;;;;;;;;;13.56;61.45;98383.81;1088609;47;956;-82
2023/10/29 01:40:10;;;;;;;;;;;;;;;13.61;61.36;98377.00;1088354;54;963;-78
2023/10/29 01:44:21;;;;;;;;;;;;;;;13.67;60.91;98376.19;1088151;47;990;-78
2023/10/29 01:45:24;;;;;;;;;;;;;;;13.67;60.95;98376.19;1088265;47;987;-81
2023/10/29 01:46:27;;;;;;;;;;;;;;;13.68;60.96;98381.34;1088480;47;923;-83
2023/10/29 01:47:28;;;;;;;;;;;;;;;13.69;60.90;98374.13;1088305;47;1131;-81
2023/10/29 01:48:34;;;;;;;;;;;;;;;13.67;61.08;98366.28;1088188;47;972;-83
2023/10/29 01:49:37;;;;;;;;;;;;;;;13.67;60.89;98376.19;1088512;47;952;-83
2023/10/29 01:50:40;;;;;;;;;;;;;;;13.64;60.99;98371.22;1088553;54;970;-83
2023/10/29 01:51:44;;;;;;;;;;;;;;;13.69;60.96;98376.81;1088294;54;997;-81
2023/10/29 01:52:47;;;;;;;;;;;;;;;13.70;60.65;98371.25;1088171;54;1838;-80
2023/10/29 01:53:48;;;;;;;;;;;;;;;13.67;60.60;98368.13;1088180;54;988;-79
2023/10/29 01:54:52;;;;;;;;;;;;;;;13.70;60.70;98368.56;1088148;47;1037;-78
2023/10/29 01:55:52;;;;;;;;;;;;;;;13.67;60.69;98365.47;1088194;54;1000;-81
2023/10/29 01:56:53;;;;;;;;;;;;;;;13.72;60.31;98374.56;1088117;47;1385;-82
2023/10/29 01:57:56;;;;;;;;;;;;;;;13.68;60.85;98364.44;1088295;54;1110;-84
2023/10/29 01:58:57;;;;;;;;;;;;;;;13.70;60.44;98370.41;1088562;54;944;-84
2023/10/29 02:00:01;;;;;;;;;;;;;;;13.71;60.60;98362.16;1088383;47;889;-84
2023/10/29 02:01:08;;;;;;;;;;;;;;;13.73;60.76;98357.41;1088491;47;1019;-84
2023/10/29 02:02:11;;;;;;;;;;;;;;;13.70;61.13;98354.28;1088500;54;974;-82
2023/10/29 02:03:15;;;;;;;;;;;;;;;13.72;60.58;98349.53;1088472;54;1023;-84
2023/10/29 02:04:20;;;;;;;;;;;;;;;13.72;60.47;98344.16;1088559;47;947;-83
2023/10/29 02:05:21;;;;;;;;;;;;;;;13.72;60.61;98336.97;1088365;47;1452;-82
2023/10/29 02:06:24;;;;;;;;;;;;;;;13.69;61.01;98329.31;1088343;54;1092;-82
2023/10/29 02:07:28;;;;;;;;;;;;;;;13.69;60.81;98320.44;1088086;47;1178;-82
2023/10/29 02:08:31;;;;;;;;;;;;;;;13.66;60.91;98331.59;1088256;54;902;-82
2023/10/29 02:09:31;;;;;;;;;;;;;;;13.66;60.62;98312.78;1088056;54;1430;-83
2023/10/29 02:10:35;;;;;;;;;;;;;;;13.71;60.50;98312.97;1088294;47;1075;-83
2023/10/29 02:11:36;;;;;;;;;;;;;;;13.70;60.52;98311.31;1088626;54;986;-82
2023/10/29 02:12:40;;;;;;;;;;;;;;;13.71;60.53;98310.28;1088555;47;1844;-82
2023/10/29 02:13:43;;;;;;;;;;;;;;;13.68;60.39;98303.47;1088421;47;943;-82
2023/10/29 02:14:44;;;;;;;;;;;;;;;13.70;60.14;98305.94;1088496;47;1030;-82
2023/10/29 02:15:50;;;;;;;;;;;;;;;13.70;60.26;98292.53;1088530;47;869;-83
2023/10/29 02:16:51;;;;;;;;;;;;;;;13.68;60.30;98291.94;1088557;54;1424;-83
2023/10/29 02:17:54;;;;;;;;;;;;;;;13.57;60.30;98293.38;1088580;47;962;-84
2023/10/29 02:18:55;;;;;;;;;;;;;;;13.54;60.66;98296.47;1088687;54;946;-83
2023/10/29 02:19:57;;;;;;;;;;;;;;;13.53;60.29;98300.19;1088612;54;1050;-83
2023/10/29 02:21:00;;;;;;;;;;;;;;;13.53;60.70;98295.63;1088147;47;944;-80
2023/10/29 02:22:04;;;;;;;;;;;;;;;13.53;60.38;98287.59;1088123;47;978;-80
2023/10/29 02:23:11;;;;;;;;;;;;;;;13.60;60.28;98281.41;1088223;54;1018;-80
2023/10/29 02:24:11;;;;;;;;;;;;;;;13.55;60.75;98282.84;1088316;54;1084;-84
2023/10/29 02:25:12;;;;;;;;;;;;;;;13.57;60.57;98263.84;1088434;47;884;-83
2023/10/29 02:26:16;;;;;;;;;;;;;;;13.57;60.59;98270.03;1088255;47;966;-82
2023/10/29 02:27:19;;;;;;;;;;;;;;;13.57;60.53;98270.03;1088133;54;1415;-83
2023/10/29 02:28:20;;;;;;;;;;;;;;;13.56;60.50;98279.13;1088372;54;1088;-83
2023/10/29 02:29:23;;;;;;;;;;;;;;;13.56;60.55;98281.81;1088410;54;1017;-84
2023/10/29 02:30:31;;;;;;;;;;;;;;;13.54;60.50;98286.56;1088433;54;946;-83
2023/10/29 02:31:34;;;;;;;;;;;;;;;13.47;60.64;98285.75;1088321;47;1015;-80
2023/10/29 02:32:34;;;;;;;;;;;;;;;13.43;60.63;98289.03;1088038;47;1856;-80
2023/10/29 02:33:38;;;;;;;;;;;;;;;13.40;60.92;98284.91;1088037;47;936;-79
2023/10/29 02:34:38;;;;;;;;;;;;;;;13.38;60.87;98292.31;1088025;47;863;-78
2023/10/29 02:35:39;;;;;;;;;;;;;;;13.37;61.02;98290.66;1088030;47;922;-79
2023/10/29 02:36:54;;;;;;;;;;;;;;;13.36;60.88;98299.75;1088178;47;1356;-88
2023/10/29 02:37:58;;;;;;;;;;;;;;;13.37;61.05;98296.84;1088561;54;919;-83
2023/10/29 02:39:03;;;;;;;;;;;;;;;13.41;60.88;98300.81;1088408;47;915;-82
2023/10/29 02:40:05;;;;;;;;;;;;;;;13.41;60.89;98302.69;1088580;47;966;-84
2023/10/29 02:41:09;;;;;;;;;;;;;;;13.45;60.86;98303.91;1088537;46;952;-84
2023/10/29 02:42:14;;;;;;;;;;;;;;;13.42;61.00;98298.94;1088480;47;895;-83
2023/10/29 02:43:17;;;;;;;;;;;;;;;13.46;60.87;98308.25;1088665;54;934;-84
2023/10/29 02:44:18;;;;;;;;;;;;;;;13.47;60.46;98301.84;1088629;54;975;-86
2023/10/29 02:54:42;;;;;;;;;;;;;;;13.56;60.63;98287.19;1088103;54;1193;-82
2023/10/29 02:55:43;;;;;;;;;;;;;;;13.52;60.86;98293.97;1088818;54;960;-84
2023/10/29 02:56:46;;;;;;;;;;;;;;;13.52;60.76;98290.50;1088891;54;1428;-84
2023/10/29 02:57:53;;;;;;;;;;;;;;;13.51;61.08;98291.50;1088621;47;1042;-85
2023/10/29 02:58:56;;;;;;;;;;;;;;;13.49;61.18;98299.78;1088666;47;954;-84
2023/10/29 02:59:59;;;;;;;;;;;;;;;13.48;60.99;98295.44;1088545;47;987;-84
2023/10/29 03:01:07;;;;;;;;;;;;;;;13.45;61.31;98295.84;1089048;54;976;-84
2023/10/29 03:02:07;;;;;;;;;;;;;;;13.43;61.45;98292.53;1089081;54;1013;-84
2023/10/29 03:13:43;;;;;;;;;;;;;;;13.22;62.22;98272.91;1088701;54;1098;-83
2023/10/29 03:14:46;;;;;;;;;;;;;;;13.19;62.43;98285.88;1089068;47;1004;-84
2023/10/29 03:15:49;;;;;;;;;;;;;;;13.11;62.43;98287.75;1089039;54;943;-83
2023/10/29 03:17:00;;;;;;;;;;;;;;;13.06;62.80;98297.41;1089022;54;1376;-82
2023/10/29 03:18:03;;;;;;;;;;;;;;;13.04;62.74;98286.06;1089020;54;952;-83
2023/10/29 03:19:05;;;;;;;;;;;;;;;13.05;62.72;98285.03;1088932;46;977;-84
2023/10/29 03:20:07;;;;;;;;;;;;;;;13.06;63.00;98286.69;1088999;46;897;-82
2023/10/29 03:21:10;;;;;;;;;;;;;;;13.09;62.65;98278.25;1088725;47;1031;-82
2023/10/29 03:22:13;;;;;;;;;;;;;;;13.07;62.89;98288.34;1088897;54;996;-82
2023/10/29 03:23:25;;;;;;;;;;;;;;;13.09;62.99;98288.97;1088938;46;832;-82
2023/10/29 03:24:29;;;;;;;;;;;;;;;13.01;63.27;98294.53;1088753;47;925;-82
2023/10/29 03:25:39;;;;;;;;;;;;;;;12.93;63.63;98291.03;1088896;47;914;-83
2023/10/29 03:26:43;;;;;;;;;;;;;;;12.98;63.43;98292.25;1088953;54;1389;-82
2023/10/29 03:27:47;;;;;;;;;;;;;;;12.97;63.32;98286.06;1088962;47;1183;-84
2023/10/29 03:28:50;;;;;;;;;;;;;;;12.99;63.17;98283.19;1088976;54;981;-82
2023/10/29 03:29:56;;;;;;;;;;;;;;;12.95;63.63;98288.13;1089010;54;931;-82
2023/10/29 03:31:02;;;;;;;;;;;;;;;12.93;63.45;98291.03;1088842;47;918;-84
2023/10/29 03:32:05;;;;;;;;;;;;;;;12.92;63.78;98294.72;1089003;54;971;-84
2023/10/29 03:33:07;;;;;;;;;;;;;;;12.89;63.88;98295.13;1088865;47;1846;-82
2023/10/29 03:34:12;;;;;;;;;;;;;;;12.90;63.70;98291.41;1088961;54;902;-82
2023/10/29 03:35:16;;;;;;;;;;;;;;;12.85;63.83;98287.69;1088935;54;963;-83
2023/10/29 03:36:20;;;;;;;;;;;;;;;12.91;63.71;98281.50;1088932;46;925;-83
2023/10/29 03:37:22;;;;;;;;;;;;;;;12.89;63.78;98279.03;1088937;46;1158;-83
2023/10/29 03:38:26;;;;;;;;;;;;;;;12.87;63.85;98278.41;1088973;54;970;-83
2023/10/29 03:39:26;;;;;;;;;;;;;;;12.88;64.08;98276.56;1088798;47;982;-83
2023/10/29 03:40:39;;;;;;;;;;;;;;;12.93;64.07;98280.28;1088942;54;872;-82
2023/10/29 03:41:40;;;;;;;;;;;;;;;12.87;64.14;98281.09;1088859;54;893;-82
2023/10/29 03:42:46;;;;;;;;;;;;;;;12.88;64.18;98274.69;1088771;47;960;-82
2023/10/29 03:43:59;;;;;;;;;;;;;;;12.84;64.41;98284.19;1088868;46;979;-83
2023/10/29 04:14:23;;;;;;;;;;;;;;;12.94;62.41;98298.00;1087532;54;1915;-85
2023/10/29 04:17:00;;;;;;;;;;;;;;;12.98;62.38;98295.78;1077807;54;1917;-83
2023/10/29 05:13:23;;;;;;;;;;;;;;;12.76;63.28;98300.44;1088987;54;1826;-83
2023/10/29 05:14:24;;;;;;;;;;;;;;;12.70;63.59;98293.22;1089077;54;1018;-83
2023/10/29 05:15:27;;;;;;;;;;;;;;;12.72;63.62;98291.16;1089112;54;995;-83
2023/10/29 05:16:35;;;;;;;;;;;;;;;12.76;63.59;98282.50;1088784;47;950;-82
2023/10/29 05:17:39;;;;;;;;;;;;;;;12.78;63.41;98288.50;1088797;54;983;-82
2023/10/29 05:18:53;;;;;;;;;;;;;;;12.83;63.44;98287.91;1088667;47;912;-83
2023/10/29 05:19:59;;;;;;;;;;;;;;;12.80;63.49;98290.97;1088764;54;926;-83
2023/10/29 05:21:02;;;;;;;;;;;;;;;12.85;63.03;98285.81;1088724;47;947;-82
2023/10/29 05:22:05;;;;;;;;;;;;;;;12.88;63.44;98276.56;1088707;54;946;-82
2023/10/29 05:23:07;;;;;;;;;;;;;;;12.90;63.17;98277.16;1088422;47;975;-82
2023/10/29 05:24:13;;;;;;;;;;;;;;;12.91;63.54;98277.00;1088779;54;980;-83
2023/10/29 05:25:14;;;;;;;;;;;;;;;12.91;64.00;98277.00;1088665;54;994;-83
2023/10/29 05:26:17;;;;;;;;;;;;;;;12.92;63.77;98272.44;1088727;54;993;-82
2023/10/29 05:27:18;;;;;;;;;;;;;;;12.95;63.45;98272.84;1088618;47;1151;-83
2023/10/29 05:28:25;;;;;;;;;;;;;;;12.98;63.11;98276.16;1088696;54;995;-82
2023/10/29 05:29:27;;;;;;;;;;;;;;;13.01;63.50;98275.75;1088648;47;900;-83
2023/10/29 05:30:30;;;;;;;;;;;;;;;13.03;63.42;98279.06;1088741;47;970;-84
2023/10/29 05:31:31;;;;;;;;;;;;;;;13.04;63.37;98283.38;1088705;47;926;-82
2023/10/29 05:32:36;;;;;;;;;;;;;;;13.06;63.71;98282.16;1088692;47;989;-81
2023/10/29 05:33:37;;;;;;;;;;;;;;;13.07;63.69;98285.66;1088714;54;1868;-82
2023/10/29 05:34:43;;;;;;;;;;;;;;;13.05;63.98;98287.72;1088775;54;982;-82
2023/10/29 05:35:44;;;;;;;;;;;;;;;13.09;63.74;98280.94;1088810;54;1039;-82
2023/10/29 05:36:51;;;;;;;;;;;;;;;13.09;63.90;98287.09;1088643;47;1209;-82
2023/10/29 05:37:51;;;;;;;;;;;;;;;13.09;63.80;98288.97;1088719;54;952;-82
2023/10/29 05:38:55;;;;;;;;;;;;;;;13.10;64.12;98294.13;1088731;54;963;-82
2023/10/29 05:40:04;;;;;;;;;;;;;;;13.10;64.14;98290.63;1088687;54;1023;-81
2023/10/29 05:41:07;;;;;;;;;;;;;;;13.11;63.81;98292.28;1088607;47;893;-82
2023/10/29 05:42:14;;;;;;;;;;;;;;;13.11;64.10;98281.56;1088716;47;982;-84
2023/10/29 05:43:17;;;;;;;;;;;;;;;13.13;64.17;98284.84;1088789;46;946;-83
2023/10/29 05:44:21;;;;;;;;;;;;;;;13.13;64.01;98284.03;1088668;47;976;-82
2023/10/29 05:45:30;;;;;;;;;;;;;;;13.14;63.73;98273.09;1088685;54;962;-83
2023/10/29 05:46:36;;;;;;;;;;;;;;;13.17;63.95;98275.38;1088668;47;888;-83
2023/10/29 05:47:49;;;;;;;;;;;;;;;13.18;63.95;98276.19;1088676;47;838;-82
2023/10/29 05:48:50;;;;;;;;;;;;;;;13.16;63.65;98279.06;1088726;47;990;-83
2023/10/29 05:49:54;;;;;;;;;;;;;;;13.10;64.05;98277.22;1088663;47;915;-83
2023/10/29 05:50:55;;;;;;;;;;;;;;;13.04;63.85;98283.38;1088780;54;916;-81
2023/10/29 05:52:07;;;;;;;;;;;;;;;13.01;63.77;98291.84;1088796;54;984;-81
2023/10/29 05:53:10;;;;;;;;;;;;;;;12.95;63.52;98293.50;1088777;54;1838;-82
2023/10/29 05:54:14;;;;;;;;;;;;;;;12.93;63.83;98295.53;1088598;47;869;-83
2023/10/29 05:55:18;;;;;;;;;;;;;;;12.90;63.68;98296.78;1088633;54;926;-82
2023/10/29 05:56:22;;;;;;;;;;;;;;;12.90;63.43;98301.31;1088786;54;955;-82
2023/10/29 05:57:23;;;;;;;;;;;;;;;12.90;63.53;98296.78;1088689;47;1354;-81
2023/10/29 05:58:28;;;;;;;;;;;;;;;12.88;63.63;98292.66;1088659;54;996;-82
2023/10/29 05:59:33;;;;;;;;;;;;;;;12.90;63.53;98294.09;1088619;47;954;-83
2023/10/29 06:00:36;;;;;;;;;;;;;;;12.91;63.69;98287.72;1088582;54;993;-80
2023/10/29 06:01:38;;;;;;;;;;;;;;;12.94;63.54;98298.00;1088697;54;994;-82
2023/10/29 06:02:57;;;;;;;;;;;;;;;12.88;63.79;98298.03;1088651;47;879;-82
2023/10/29 06:03:58;;;;;;;;;;;;;;;12.87;63.86;98302.53;1088667;47;899;-83
2023/10/29 06:06:32;;;;;;;;;;;;;;;12.93;63.51;98296.38;1088608;47;818;-81
2023/10/29 06:07:36;;;;;;;;;;;;;;;12.98;63.34;98297.63;1088547;54;991;-80
2023/10/29 06:08:39;;;;;;;;;;;;;;;13.01;63.67;98303.41;1088507;47;916;-81
2023/10/29 06:09:44;;;;;;;;;;;;;;;13.00;63.70;98292.88;1088585;54;904;-82
2023/10/29 06:10:50;;;;;;;;;;;;;;;13.02;63.42;98302.38;1088631;47;988;-82
2023/10/29 06:11:52;;;;;;;;;;;;;;;13.01;63.32;98302.59;1088638;47;930;-82
2023/10/29 06:12:59;;;;;;;;;;;;;;;13.01;63.45;98310.63;1088062;47;1109;-81
2023/10/29 06:14:13;;;;;;;;;;;;;;;13.03;63.07;98312.06;1088692;54;960;-85
2023/10/29 06:15:19;;;;;;;;;;;;;;;13.01;63.13;98313.31;1088770;54;946;-83
2023/10/29 06:16:32;;;;;;;;;;;;;;;13.05;62.81;98319.91;1088727;54;1008;-84
2023/10/29 06:17:41;;;;;;;;;;;;;;;13.05;62.59;98314.53;1088610;54;1486;-84
2023/10/29 06:18:48;;;;;;;;;;;;;;;13.01;62.49;98319.50;1088711;54;954;-84
2023/10/29 06:19:52;;;;;;;;;;;;;;;12.98;62.16;98324.44;1088596;47;852;-84
2023/10/29 06:21:05;;;;;;;;;;;;;;;12.97;62.32;98325.47;1088608;54;962;-84
2023/10/29 06:22:10;;;;;;;;;;;;;;;12.99;62.14;98326.09;1088615;54;971;-83
2023/10/29 06:23:10;;;;;;;;;;;;;;;12.98;62.10;98336.00;1088569;47;979;-81
2023/10/29 06:24:19;;;;;;;;;;;;;;;13.01;62.33;98334.78;1088552;54;983;-81
2023/10/29 06:38:08;;;;;;;;;;;;;;;13.17;62.26;98337.06;1088449;54;1172;-82
2023/10/29 06:39:09;;;;;;;;;;;;;;;13.18;62.02;98336.03;1089203;54;1009;-83
2023/10/29 06:40:30;;;;;;;;;;;;;;;13.15;62.16;98338.31;1089339;46;975;-83
2023/10/29 07:13:11;;;;;;;;;;;;;;;13.43;62.00;98407.94;1087842;54;1061;-83
2023/10/29 07:14:14;;;;;;;;;;;;;;;13.44;61.91;98419.53;1089220;54;1081;-85
2023/10/29 07:15:25;;;;;;;;;;;;;;;13.45;61.78;98411.25;1088868;47;944;-82
2023/10/29 07:16:27;;;;;;;;;;;;;;;13.46;61.97;98415.59;1088979;47;987;-83
2023/10/29 07:17:40;;;;;;;;;;;;;;;13.46;62.12;98431.72;1088783;47;1191;-84
2023/10/29 07:18:40;;;;;;;;;;;;;;;13.48;61.86;98426.13;1088460;54;1085;-81
2023/10/29 07:19:44;;;;;;;;;;;;;;;13.48;61.76;98429.66;1088357;47;1162;-82
2023/10/29 07:20:44;;;;;;;;;;;;;;;13.50;62.08;98438.34;1088226;47;1038;-83
2023/10/29 07:21:50;;;;;;;;;;;;;;;13.52;61.78;98435.44;1088874;54;1013;-83
2023/10/29 07:22:53;;;;;;;;;;;;;;;13.54;61.97;98444.94;1088742;54;965;-83
2023/10/29 07:23:57;;;;;;;;;;;;;;;13.53;62.28;98453.22;1088775;47;973;-83
2023/10/29 07:24:58;;;;;;;;;;;;;;;13.51;62.49;98453.41;1088946;54;1022;-84
2023/10/29 07:26:10;;;;;;;;;;;;;;;13.52;62.42;98457.72;1088756;54;1023;-83
2023/10/29 07:27:13;;;;;;;;;;;;;;;13.51;62.62;98469.50;1088708;47;1146;-83
2023/10/29 07:28:17;;;;;;;;;;;;;;;13.52;62.61;98459.59;1088711;54;944;-82
2023/10/29 07:29:17;;;;;;;;;;;;;;;13.56;62.71;98461.69;1088801;54;1090;-83
2023/10/29 07:30:22;;;;;;;;;;;;;;;13.56;62.42;98464.38;1088793;47;993;-84
2023/10/29 07:31:23;;;;;;;;;;;;;;;13.58;62.67;98464.16;1088824;54;911;-83
2023/10/29 07:32:34;;;;;;;;;;;;;;;13.60;62.54;98461.28;1088867;54;978;-83
2023/10/29 07:33:35;;;;;;;;;;;;;;;13.54;62.86;98462.94;1088941;54;1863;-84
2023/10/29 07:34:36;;;;;;;;;;;;;;;13.47;63.24;98468.25;1088819;54;1038;-83
2023/10/29 07:35:40;;;;;;;;;;;;;;;13.51;63.09;98461.44;1088795;54;998;-83
2023/10/29 07:36:41;;;;;;;;;;;;;;;13.55;63.12;98468.09;1088613;54;1361;-82
2023/10/29 07:37:44;;;;;;;;;;;;;;;13.51;63.06;98458.75;1088475;54;900;-82
2023/10/29 07:38:45;;;;;;;;;;;;;;;13.55;63.19;98460.03;1088608;54;911;-83
2023/10/29 07:39:48;;;;;;;;;;;;;;;13.57;63.19;98457.13;1088602;54;1129;-82
2023/10/29 07:40:49;;;;;;;;;;;;;;;13.57;63.19;98457.97;1088535;47;1039;-82
2023/10/29 07:41:56;;;;;;;;;;;;;;;13.56;63.35;98459.00;1088789;54;939;-84
2023/10/29 07:43:03;;;;;;;;;;;;;;;13.57;63.56;98463.34;1088646;54;1094;-84
2023/10/29 07:44:07;;;;;;;;;;;;;;;13.56;63.33;98467.06;1088685;54;1007;-83
2023/10/29 07:45:10;;;;;;;;;;;;;;;13.60;63.22;98469.34;1088661;54;1043;-84
2023/10/29 07:46:14;;;;;;;;;;;;;;;13.59;63.39;98470.38;1088521;46;910;-84
2023/10/29 07:47:14;;;;;;;;;;;;;;;13.56;63.07;98475.09;1088178;47;1352;-82
2023/10/29 07:48:21;;;;;;;;;;;;;;;13.53;63.03;98475.50;1088546;54;1068;-83
2023/10/29 07:49:21;;;;;;;;;;;;;;;13.42;63.07;98470.72;1088401;54;1019;-82
2023/10/29 07:50:25;;;;;;;;;;;;;;;13.41;62.74;98485.19;1088307;47;1022;-82
2023/10/29 07:51:26;;;;;;;;;;;;;;;13.50;62.80;98485.81;1088095;54;1145;-80
2023/10/29 07:52:29;;;;;;;;;;;;;;;13.39;62.48;98487.25;1088174;47;1483;-81
2023/10/29 07:53:30;;;;;;;;;;;;;;;13.38;62.60;98485.56;1088179;47;1883;-81
2023/10/29 07:54:34;;;;;;;;;;;;;;;13.42;62.57;98492.19;1088444;54;1098;-83
2023/10/29 07:55:36;;;;;;;;;;;;;;;13.41;62.29;98479.81;1088375;54;1196;-81
2023/10/29 07:56:41;;;;;;;;;;;;;;;13.45;61.96;98486.44;1088426;47;1306;-81
2023/10/29 07:57:41;;;;;;;;;;;;;;;13.52;62.33;98483.78;1088029;54;1176;-80
2023/10/29 07:58:47;;;;;;;;;;;;;;;13.53;62.24;98483.56;1088324;47;1165;-84
2023/10/29 07:59:52;;;;;;;;;;;;;;;13.56;62.19;98487.69;1088736;47;1028;-84
2023/10/29 08:00:56;;;;;;;;;;;;;;;13.56;61.96;98488.53;1088830;54;1032;-85
2023/10/29 08:02:10;;;;;;;;;;;;;;;13.49;61.96;98486.84;1088875;46;964;-84
2023/10/29 08:03:18;;;;;;;;;;;;;;;13.47;61.90;98479.00;1088721;47;837;-83
2023/10/29 08:04:22;;;;;;;;;;;;;;;13.52;61.93;98479.22;1088688;54;934;-84
2023/10/29 08:05:30;;;;;;;;;;;;;;;13.52;62.06;98484.59;1088943;46;863;-83
2023/10/29 08:06:36;;;;;;;;;;;;;;;13.57;62.36;98484.81;1088807;47;987;-82
2023/10/29 08:07:37;;;;;;;;;;;;;;;13.59;62.09;98491.84;1088503;54;969;-83
2023/10/29 08:08:44;;;;;;;;;;;;;;;13.63;62.06;98487.72;1088632;47;953;-84
2023/10/29 08:09:45;;;;;;;;;;;;;;;13.57;62.28;98490.19;1088832;54;984;-84
2023/10/29 08:10:56;;;;;;;;;;;;;;;13.58;61.90;98491.00;1088905;54;1032;-84
2023/10/29 08:11:57;;;;;;;;;;;;;;;13.60;61.89;98485.44;1088860;54;886;-84
2023/10/29 08:13:03;;;;;;;;;;;;;;;13.64;62.03;98495.59;1088928;54;1193;-85
2023/10/29 08:14:12;;;;;;;;;;;;;;;13.69;61.79;98482.34;1088034;54;1849;-85
2023/10/29 08:15:17;;;;;;;;;;;;;;;13.74;61.95;98479.06;1088950;54;911;-84
2023/10/29 08:16:18;;;;;;;;;;;;;;;13.79;62.11;98481.13;1088945;54;1152;-84
2023/10/29 08:17:25;;;;;;;;;;;;;;;13.82;61.69;98473.50;1088784;47;1448;-84
2023/10/29 08:18:28;;;;;;;;;;;;;;;13.86;61.79;98476.59;1088954;54;914;-82
2023/10/29 08:19:29;;;;;;;;;;;;;;;13.88;61.37;98475.38;1088716;54;930;-83
2023/10/29 08:20:32;;;;;;;;;;;;;;;13.92;61.64;98481.19;1088770;47;914;-84
2023/10/29 08:21:33;;;;;;;;;;;;;;;13.95;61.69;98485.31;1088818;46;904;-85
2023/10/29 08:22:45;;;;;;;;;;;;;;;13.92;61.43;98483.00;1088745;46;962;-84
2023/10/29 08:23:46;;;;;;;;;;;;;;;13.92;61.68;98485.69;1088743;47;943;-85
2023/10/29 08:24:55;;;;;;;;;;;;;;;13.94;61.24;98492.50;1088853;54;1019;-84
2023/10/29 08:26:06;;;;;;;;;;;;;;;13.97;61.21;98485.94;1088793;47;970;-83
2023/10/29 08:27:10;;;;;;;;;;;;;;;13.97;61.26;98483.25;1088714;54;1284;-84
2023/10/29 08:28:18;;;;;;;;;;;;;;;13.98;61.26;98490.28;1088671;54;978;-84
2023/10/29 08:29:25;;;;;;;;;;;;;;;13.98;61.15;98487.59;1088742;54;1037;-84
2023/10/29 08:30:31;;;;;;;;;;;;;;;14.03;61.53;98483.22;1088830;54;952;-84
2023/10/29 08:31:37;;;;;;;;;;;;;;;14.07;61.34;98488.19;1088723;54;947;-83
2023/10/29 08:32:38;;;;;;;;;;;;;;;14.10;61.57;98483.25;1088777;47;926;-83
2023/10/29 08:33:41;;;;;;;;;;;;;;;14.12;61.16;98486.56;1088636;54;1853;-83
2023/10/29 08:34:42;;;;;;;;;;;;;;;14.15;61.08;98479.94;1088797;54;1012;-83
2023/10/29 08:35:58;;;;;;;;;;;;;;;14.17;61.26;98486.75;1088698;46;890;-86
2023/10/29 08:37:04;;;;;;;;;;;;;;;14.20;61.23;98488.22;1088892;54;1517;-83
2023/10/29 08:38:08;;;;;;;;;;;;;;;14.23;61.57;98486.97;1088753;54;1113;-84
2023/10/29 08:39:13;;;;;;;;;;;;;;;14.23;61.52;98486.97;1088771;54;991;-84
2023/10/29 08:40:23;;;;;;;;;;;;;;;14.25;61.76;98490.28;1088841;54;922;-84
2023/10/29 08:41:30;;;;;;;;;;;;;;;14.27;62.08;98490.88;1088932;46;951;-85
2023/10/29 08:42:33;;;;;;;;;;;;;;;14.25;62.40;98493.78;1088839;46;944;-85
2023/10/29 08:43:34;;;;;;;;;;;;;;;14.28;61.97;98498.75;1088802;54;941;-84
2023/10/29 08:44:57;;;;;;;;;;;;;;;14.30;61.59;98494.00;1088762;54;966;-85
2023/10/29 08:45:58;;;;;;;;;;;;;;;14.32;61.49;98486.53;1088872;54;964;-83
2023/10/29 08:50:14;;;;;;;;;;;;;;;14.30;61.34;98487.78;1088760;47;926;-83
2023/10/29 08:51:30;;;;;;;;;;;;;;;14.28;61.20;98479.09;1088760;54;948;-84
2023/10/29 08:54:15;;;;;;;;;;;;;;;14.27;61.90;98475.59;1088727;47;1852;-84
2023/10/29 08:55:43;;;;;;;;;;;;;;;14.24;62.07;98461.75;1088815;46;1002;-83
2023/10/29 08:57:11;;;;;;;;;;;;;;;14.14;62.18;98457.63;1088570;54;1305;-83
2023/10/29 08:58:47;;;;;;;;;;;;;;;14.09;62.00;98452.03;1088749;54;952;-85
2023/10/29 08:59:53;;;;;;;;;;;;;;;14.09;62.82;98449.34;1088666;47;1703;-83
2023/10/29 09:01:11;;;;;;;;;;;;;;;14.06;62.74;98454.31;1088756;47;1025;-84
2023/10/29 09:09:37;;;;;;;;;;;;;;;;;;;;;
2023/10/29 09:10:53;;;;;;;;;;;;;;;13.87;64.81;98452.25;1088711;54;929;-83
2023/10/29 09:12:08;;;;;;;;;;;;;;;;;;;;;
2023/10/29 09:38:11;;;;;;;;;;;;;;;14.31;63.94;98424.94;1800090;54;52402;-85
2023/10/29 10:35:52;;;;;;;;;;;;;;;14.87;65.54;98394.03;1089702;54;1681;-84
2023/10/29 10:36:57;;;;;;;;;;;;;;;14.85;65.29;98389.88;1090330;54;1325;-82
2023/10/29 10:38:05;;;;;;;;;;;;;;;14.87;64.93;98387.81;1090291;46;894;-84
2023/10/29 10:39:12;;;;;;;;;;;;;;;14.88;65.51;98384.06;1090478;46;990;-84
2023/10/29 10:40:23;;;;;;;;;;;;;;;14.89;65.40;98388.41;1090044;46;917;-80
2023/10/29 10:41:23;;;;;;;;;;;;;;;14.92;65.74;98388.00;1090150;46;955;-83
2023/10/29 10:42:27;;;;;;;;;;;;;;;14.91;65.34;98384.47;1090242;54;948;-84
2023/10/29 10:43:28;;;;;;;;;;;;;;;14.94;65.33;98386.75;1090303;46;939;-83
2023/10/29 10:44:32;;;;;;;;;;;;;;;14.96;65.71;98386.53;1090278;54;975;-82
2023/10/29 10:45:33;;;;;;;;;;;;;;;14.96;65.50;98383.81;1090348;54;931;-83
2023/10/29 10:46:36;;;;;;;;;;;;;;;14.97;65.33;98380.09;1090427;54;932;-83
2023/10/29 10:47:39;;;;;;;;;;;;;;;14.98;65.75;98381.75;1090269;54;1383;-84
2023/10/29 10:48:41;;;;;;;;;;;;;;;14.88;66.05;98386.75;1090523;54;937;-80